sensor_id;sensor_type;location;lat;lon;timestamp;temperature;humidity
64939;DHT22;51453;47.738;7.420;2022-08-02T00:01:25;18.80;99.90
64939;DHT22;51453;47.738;7.420;2022-08-02T00:03:51;18.70;99.90
64939;DHT22;51453;47.738;7.420;2022-08-02T00:06:17;18.70;99.90
64939;DHT22;51453;47.738;7.420;2022-08-02T00:08:42;18.70;99.90
64939;DHT22;51453;47.738;7.420;2022-08-02T00:11:08;18.70;99.90
64939;DHT22;51453;47.738;7.420;2022-08-02T00:13:34;18.70;99.90
64939;DHT22;51453;47.738;7.420;2022-08-02T00:16:00;18.80;99.90
64939;DHT22;51453;47.738;7.420;2022-08-02T00:18:25;18.80;99.90
64939;DHT22;51453;47.738;7.420;2022-08-02T00:20:51;18.80;99.90
64939;DHT22;51453;47.738;7.420;2022-08-02T00:23:17;18.80;99.90
64939;DHT22;51453;47.738;7.420;2022-08-02T00:25:43;18.70;99.90
64939;DHT22;51453;47.738;7.420;2022-08-02T00:28:08;18.60;99.90
64939;DHT22;51453;47.738;7.420;2022-08-02T00:30:35;18.50;99.90
64939;DHT22;51453;47.738;7.420;2022-08-02T00:33:01;18.40;99.90
64939;DHT22;51453;47.738;7.420;2022-08-02T00:35:29;18.30;99.90
64939;DHT22;51453;47.738;7.420;2022-08-02T00:37:55;18.20;99.90
64939;DHT22;51453;47.738;7.420;2022-08-02T00:40:22;18.20;99.90
64939;DHT22;51453;47.738;7.420;2022-08-02T00:43:09;18.20;99.90
64939;DHT22;51453;47.738;7.420;2022-08-02T00:45:39;18.20;99.90
64939;DHT22;51453;47.738;7.420;2022-08-02T00:48:07;18.30;99.90
64939;DHT22;51453;47.738;7.420;2022-08-02T00:50:34;18.40;99.90
64939;DHT22;51453;47.738;7.420;2022-08-02T00:53:00;18.50;99.90
64939;DHT22;51453;47.738;7.420;2022-08-02T00:55:26;18.50;99.90
64939;DHT22;51453;47.738;7.420;2022-08-02T00:57:52;18.60;99.90
64939;DHT22;51453;47.738;7.420;2022-08-02T01:00:18;18.70;99.90
64939;DHT22;51453;47.738;7.420;2022-08-02T01:02:44;18.70;99.90
64939;DHT22;51453;47.738;7.420;2022-08-02T01:05:11;18.80;99.90
64939;DHT22;51453;47.738;7.420;2022-08-02T01:07:37;18.90;99.90
64939;DHT22;51453;47.738;7.420;2022-08-02T01:10:03;19.00;99.90
64939;DHT22;51453;47.738;7.420;2022-08-02T01:12:29;19.00;99.90
64939;DHT22;51453;47.738;7.420;2022-08-02T01:14:59;19.00;99.90
64939;DHT22;51453;47.738;7.420;2022-08-02T01:17:31;18.90;99.90
64939;DHT22;51453;47.738;7.420;2022-08-02T01:28:34;18.80;99.90
64939;DHT22;51453;47.738;7.420;2022-08-02T01:31:08;18.90;99.90
64939;DHT22;51453;47.738;7.420;2022-08-02T01:33:40;18.90;99.90
64939;DHT22;51453;47.738;7.420;2022-08-02T01:36:10;19.00;99.90
64939;DHT22;51453;47.738;7.420;2022-08-02T01:38:41;19.00;99.90
64939;DHT22;51453;47.738;7.420;2022-08-02T01:41:09;19.10;99.90
64939;DHT22;51453;47.738;7.420;2022-08-02T01:43:39;19.10;99.90
64939;DHT22;51453;47.738;7.420;2022-08-02T01:46:08;19.10;99.90
64939;DHT22;51453;47.738;7.420;2022-08-02T01:48:34;19.00;99.90
64939;DHT22;51453;47.738;7.420;2022-08-02T01:51:00;18.90;99.90
64939;DHT22;51453;47.738;7.420;2022-08-02T01:53:28;18.80;99.90
64939;DHT22;51453;47.738;7.420;2022-08-02T01:55:57;18.70;99.90
64939;DHT22;51453;47.738;7.420;2022-08-02T01:58:25;18.50;99.90
64939;DHT22;51453;47.738;7.420;2022-08-02T02:00:52;18.40;99.90
64939;DHT22;51453;47.738;7.420;2022-08-02T02:03:23;18.30;99.90
64939;DHT22;51453;47.738;7.420;2022-08-02T02:05:51;18.10;99.90
64939;DHT22;51453;47.738;7.420;2022-08-02T02:08:28;18.10;99.90
64939;DHT22;51453;47.738;7.420;2022-08-02T02:10:56;18.00;99.90
64939;DHT22;51453;47.738;7.420;2022-08-02T02:13:24;17.90;99.90
64939;DHT22;51453;47.738;7.420;2022-08-02T02:15:51;17.90;99.90
64939;DHT22;51453;47.738;7.420;2022-08-02T02:18:23;17.80;99.90
64939;DHT22;51453;47.738;7.420;2022-08-02T02:20:49;17.80;99.90
64939;DHT22;51453;47.738;7.420;2022-08-02T02:23:15;17.80;99.90
64939;DHT22;51453;47.738;7.420;2022-08-02T02:25:42;17.80;99.90
64939;DHT22;51453;47.738;7.420;2022-08-02T02:28:22;17.80;99.90
64939;DHT22;51453;47.738;7.420;2022-08-02T02:31:07;17.70;99.90
64939;DHT22;51453;47.738;7.420;2022-08-02T02:34:01;17.70;99.90
64939;DHT22;51453;47.738;7.420;2022-08-02T02:36:28;17.70;99.90
64939;DHT22;51453;47.738;7.420;2022-08-02T02:38:56;17.60;99.90
64939;DHT22;51453;47.738;7.420;2022-08-02T02:41:25;17.60;99.90
64939;DHT22;51453;47.738;7.420;2022-08-02T02:43:54;17.60;99.90
64939;DHT22;51453;47.738;7.420;2022-08-02T02:46:21;17.60;99.90
64939;DHT22;51453;47.738;7.420;2022-08-02T02:48:51;17.50;99.90
64939;DHT22;51453;47.738;7.420;2022-08-02T02:51:18;17.50;99.90
64939;DHT22;51453;47.738;7.420;2022-08-02T02:53:45;17.40;99.90
64939;DHT22;51453;47.738;7.420;2022-08-02T02:56:13;17.40;99.90
64939;DHT22;51453;47.738;7.420;2022-08-02T02:58:39;17.30;99.90
64939;DHT22;51453;47.738;7.420;2022-08-02T03:01:05;17.30;99.90
64939;DHT22;51453;47.738;7.420;2022-08-02T03:03:51;17.30;99.90
64939;DHT22;51453;47.738;7.420;2022-08-02T03:06:18;17.30;99.90
64939;DHT22;51453;47.738;7.420;2022-08-02T03:08:44;17.20;99.90
64939;DHT22;51453;47.738;7.420;2022-08-02T03:11:10;17.10;99.90
64939;DHT22;51453;47.738;7.420;2022-08-02T03:13:37;17.10;99.90
64939;DHT22;51453;47.738;7.420;2022-08-02T03:16:04;17.10;99.90
64939;DHT22;51453;47.738;7.420;2022-08-02T03:18:35;17.10;99.90
64939;DHT22;51453;47.738;7.420;2022-08-02T03:21:03;17.00;99.90
64939;DHT22;51453;47.738;7.420;2022-08-02T03:23:30;17.10;99.90
64939;DHT22;51453;47.738;7.420;2022-08-02T03:25:55;17.00;99.90
64939;DHT22;51453;47.738;7.420;2022-08-02T03:28:21;16.90;99.90
64939;DHT22;51453;47.738;7.420;2022-08-02T03:30:47;16.90;99.90
64939;DHT22;51453;47.738;7.420;2022-08-02T03:33:13;16.90;99.90
64939;DHT22;51453;47.738;7.420;2022-08-02T03:35:40;16.90;99.90
64939;DHT22;51453;47.738;7.420;2022-08-02T03:38:07;16.80;99.90
64939;DHT22;51453;47.738;7.420;2022-08-02T03:40:34;16.80;99.90
64939;DHT22;51453;47.738;7.420;2022-08-02T03:43:00;16.70;99.90
64939;DHT22;51453;47.738;7.420;2022-08-02T03:45:27;16.70;99.90
64939;DHT22;51453;47.738;7.420;2022-08-02T03:47:54;16.70;99.90
64939;DHT22;51453;47.738;7.420;2022-08-02T03:50:21;16.70;99.90
64939;DHT22;51453;47.738;7.420;2022-08-02T03:52:47;16.70;99.90
64939;DHT22;51453;47.738;7.420;2022-08-02T03:55:13;16.80;99.90
64939;DHT22;51453;47.738;7.420;2022-08-02T03:57:43;16.80;99.90
64939;DHT22;51453;47.738;7.420;2022-08-02T04:00:11;16.80;99.90
64939;DHT22;51453;47.738;7.420;2022-08-02T04:02:37;16.80;99.90
64939;DHT22;51453;47.738;7.420;2022-08-02T04:05:03;16.80;99.90
64939;DHT22;51453;47.738;7.420;2022-08-02T04:07:29;16.80;99.90
64939;DHT22;51453;47.738;7.420;2022-08-02T04:09:55;16.80;99.90
64939;DHT22;51453;47.738;7.420;2022-08-02T04:12:20;16.80;99.90
64939;DHT22;51453;47.738;7.420;2022-08-02T04:14:46;16.80;99.90
64939;DHT22;51453;47.738;7.420;2022-08-02T04:17:13;16.80;99.90
64939;DHT22;51453;47.738;7.420;2022-08-02T04:20:19;16.80;99.90
64939;DHT22;51453;47.738;7.420;2022-08-02T04:22:50;16.90;99.90
64939;DHT22;51453;47.738;7.420;2022-08-02T04:25:19;16.90;99.90
64939;DHT22;51453;47.738;7.420;2022-08-02T04:27:45;16.90;99.90
64939;DHT22;51453;47.738;7.420;2022-08-02T04:30:12;16.90;99.90
64939;DHT22;51453;47.738;7.420;2022-08-02T04:32:38;17.00;99.90
64939;DHT22;51453;47.738;7.420;2022-08-02T04:35:06;17.10;99.90
64939;DHT22;51453;47.738;7.420;2022-08-02T04:37:33;17.20;99.90
64939;DHT22;51453;47.738;7.420;2022-08-02T04:39:59;17.30;99.90
64939;DHT22;51453;47.738;7.420;2022-08-02T04:42:25;17.40;99.90
64939;DHT22;51453;47.738;7.420;2022-08-02T04:44:52;17.60;99.90
64939;DHT22;51453;47.738;7.420;2022-08-02T04:47:19;17.80;99.90
64939;DHT22;51453;47.738;7.420;2022-08-02T04:49:45;18.20;99.90
64939;DHT22;51453;47.738;7.420;2022-08-02T04:52:11;18.70;99.90
64939;DHT22;51453;47.738;7.420;2022-08-02T04:54:37;19.20;99.90
64939;DHT22;51453;47.738;7.420;2022-08-02T04:57:02;20.20;99.90
64939;DHT22;51453;47.738;7.420;2022-08-02T04:59:48;21.10;99.90
64939;DHT22;51453;47.738;7.420;2022-08-02T05:02:14;21.20;99.90
64939;DHT22;51453;47.738;7.420;2022-08-02T05:04:40;20.80;99.90
64939;DHT22;51453;47.738;7.420;2022-08-02T05:07:05;20.50;99.90
64939;DHT22;51453;47.738;7.420;2022-08-02T05:09:31;20.30;99.90
64939;DHT22;51453;47.738;7.420;2022-08-02T05:11:56;20.10;99.90
64939;DHT22;51453;47.738;7.420;2022-08-02T05:14:22;20.10;99.90
64939;DHT22;51453;47.738;7.420;2022-08-02T05:16:48;20.20;99.90
64939;DHT22;51453;47.738;7.420;2022-08-02T05:19:13;20.60;99.90
64939;DHT22;51453;47.738;7.420;2022-08-02T05:21:39;20.70;99.90
64939;DHT22;51453;47.738;7.420;2022-08-02T05:24:05;21.10;99.90
64939;DHT22;51453;47.738;7.420;2022-08-02T05:26:31;21.80;99.90
64939;DHT22;51453;47.738;7.420;2022-08-02T05:28:56;22.50;99.90
64939;DHT22;51453;47.738;7.420;2022-08-02T05:31:22;22.30;99.90
64939;DHT22;51453;47.738;7.420;2022-08-02T05:33:48;21.70;99.90
64939;DHT22;51453;47.738;7.420;2022-08-02T05:36:14;21.30;99.90
64939;DHT22;51453;47.738;7.420;2022-08-02T05:38:39;21.10;99.90
64939;DHT22;51453;47.738;7.420;2022-08-02T05:41:05;21.40;99.90
64939;DHT22;51453;47.738;7.420;2022-08-02T05:43:31;22.10;99.90
64939;DHT22;51453;47.738;7.420;2022-08-02T05:45:57;22.50;99.90
64939;DHT22;51453;47.738;7.420;2022-08-02T05:48:23;22.40;99.90
64939;DHT22;51453;47.738;7.420;2022-08-02T05:50:54;22.00;99.90
64939;DHT22;51453;47.738;7.420;2022-08-02T05:54:03;21.40;99.90
64939;DHT22;51453;47.738;7.420;2022-08-02T05:59:04;21.40;99.90
64939;DHT22;51453;47.738;7.420;2022-08-02T06:01:36;22.40;99.90
64939;DHT22;51453;47.738;7.420;2022-08-02T06:04:05;23.40;99.90
64939;DHT22;51453;47.738;7.420;2022-08-02T06:06:33;24.30;99.90
64939;DHT22;51453;47.738;7.420;2022-08-02T06:09:19;24.60;99.90
64939;DHT22;51453;47.738;7.420;2022-08-02T06:11:48;25.00;99.90
64939;DHT22;51453;47.738;7.420;2022-08-02T06:14:17;26.00;99.90
64939;DHT22;51453;47.738;7.420;2022-08-02T06:16:43;26.90;99.90
64939;DHT22;51453;47.738;7.420;2022-08-02T06:19:12;27.30;99.90
64939;DHT22;51453;47.738;7.420;2022-08-02T06:21:40;26.90;99.90
64939;DHT22;51453;47.738;7.420;2022-08-02T06:24:09;25.90;99.90
64939;DHT22;51453;47.738;7.420;2022-08-02T06:26:36;24.90;99.90
64939;DHT22;51453;47.738;7.420;2022-08-02T06:29:03;24.00;99.90
64939;DHT22;51453;47.738;7.420;2022-08-02T06:31:29;23.10;99.90
64939;DHT22;51453;47.738;7.420;2022-08-02T06:33:55;22.50;99.90
64939;DHT22;51453;47.738;7.420;2022-08-02T06:36:36;22.00;99.90
64939;DHT22;51453;47.738;7.420;2022-08-02T06:39:34;21.80;99.90
64939;DHT22;51453;47.738;7.420;2022-08-02T06:42:09;21.70;99.90
64939;DHT22;51453;47.738;7.420;2022-08-02T06:44:36;21.70;99.90
64939;DHT22;51453;47.738;7.420;2022-08-02T06:47:03;21.90;99.90
64939;DHT22;51453;47.738;7.420;2022-08-02T06:49:29;22.10;99.90
64939;DHT22;51453;47.738;7.420;2022-08-02T06:51:55;22.40;99.90
64939;DHT22;51453;47.738;7.420;2022-08-02T06:54:20;22.50;99.90
64939;DHT22;51453;47.738;7.420;2022-08-02T06:56:47;22.50;99.90
64939;DHT22;51453;47.738;7.420;2022-08-02T06:59:13;22.50;99.90
64939;DHT22;51453;47.738;7.420;2022-08-02T07:01:38;22.40;99.90
64939;DHT22;51453;47.738;7.420;2022-08-02T07:04:04;22.50;99.90
64939;DHT22;51453;47.738;7.420;2022-08-02T07:06:30;22.60;99.90
64939;DHT22;51453;47.738;7.420;2022-08-02T07:08:56;22.70;99.90
64939;DHT22;51453;47.738;7.420;2022-08-02T07:11:21;22.80;99.90
64939;DHT22;51453;47.738;7.420;2022-08-02T07:13:48;22.80;99.90
64939;DHT22;51453;47.738;7.420;2022-08-02T07:16:14;23.00;99.90
64939;DHT22;51453;47.738;7.420;2022-08-02T07:18:40;23.00;99.90
64939;DHT22;51453;47.738;7.420;2022-08-02T07:21:05;23.20;99.90
64939;DHT22;51453;47.738;7.420;2022-08-02T07:23:31;23.30;99.90
64939;DHT22;51453;47.738;7.420;2022-08-02T07:25:58;23.30;99.90
64939;DHT22;51453;47.738;7.420;2022-08-02T07:28:23;23.30;99.90
64939;DHT22;51453;47.738;7.420;2022-08-02T07:30:49;23.40;99.90
64939;DHT22;51453;47.738;7.420;2022-08-02T07:33:15;23.30;99.90
64939;DHT22;51453;47.738;7.420;2022-08-02T07:35:41;23.40;99.90
64939;DHT22;51453;47.738;7.420;2022-08-02T07:38:06;23.40;99.90
64939;DHT22;51453;47.738;7.420;2022-08-02T07:40:32;23.40;99.90
64939;DHT22;51453;47.738;7.420;2022-08-02T07:42:58;23.40;99.90
64939;DHT22;51453;47.738;7.420;2022-08-02T07:45:25;23.50;99.90
64939;DHT22;51453;47.738;7.420;2022-08-02T07:47:52;23.60;99.90
64939;DHT22;51453;47.738;7.420;2022-08-02T07:50:19;23.60;99.90
64939;DHT22;51453;47.738;7.420;2022-08-02T07:52:45;23.70;99.90
64939;DHT22;51453;47.738;7.420;2022-08-02T07:55:13;23.60;99.90
64939;DHT22;51453;47.738;7.420;2022-08-02T07:57:40;23.80;99.90
64939;DHT22;51453;47.738;7.420;2022-08-02T08:00:06;23.90;99.90
64939;DHT22;51453;47.738;7.420;2022-08-02T08:02:36;24.00;99.90
64939;DHT22;51453;47.738;7.420;2022-08-02T08:05:03;24.20;99.90
64939;DHT22;51453;47.738;7.420;2022-08-02T08:07:28;24.30;99.90
64939;DHT22;51453;47.738;7.420;2022-08-02T08:09:54;24.40;99.90
64939;DHT22;51453;47.738;7.420;2022-08-02T08:12:20;24.50;99.90
64939;DHT22;51453;47.738;7.420;2022-08-02T08:14:45;24.50;99.90
64939;DHT22;51453;47.738;7.420;2022-08-02T08:17:11;24.50;99.90
64939;DHT22;51453;47.738;7.420;2022-08-02T08:19:37;24.50;99.90
64939;DHT22;51453;47.738;7.420;2022-08-02T08:22:03;24.60;99.90
64939;DHT22;51453;47.738;7.420;2022-08-02T08:24:29;24.60;99.90
64939;DHT22;51453;47.738;7.420;2022-08-02T08:26:55;24.80;99.90
64939;DHT22;51453;47.738;7.420;2022-08-02T08:29:22;25.00;99.90
64939;DHT22;51453;47.738;7.420;2022-08-02T08:31:48;25.30;99.90
64939;DHT22;51453;47.738;7.420;2022-08-02T08:34:14;25.50;99.90
64939;DHT22;51453;47.738;7.420;2022-08-02T08:36:41;25.40;99.90
64939;DHT22;51453;47.738;7.420;2022-08-02T08:39:07;25.30;99.90
64939;DHT22;51453;47.738;7.420;2022-08-02T08:41:34;25.20;99.90
64939;DHT22;51453;47.738;7.420;2022-08-02T08:44:00;25.20;99.90
64939;DHT22;51453;47.738;7.420;2022-08-02T08:46:32;25.20;99.90
64939;DHT22;51453;47.738;7.420;2022-08-02T08:51:45;25.40;99.90
64939;DHT22;51453;47.738;7.420;2022-08-02T08:54:14;25.60;99.90
64939;DHT22;51453;47.738;7.420;2022-08-02T08:56:41;25.70;99.90
64939;DHT22;51453;47.738;7.420;2022-08-02T08:59:07;25.60;99.90
64939;DHT22;51453;47.738;7.420;2022-08-02T09:01:34;25.40;99.90
64939;DHT22;51453;47.738;7.420;2022-08-02T09:04:00;25.30;99.90
64939;DHT22;51453;47.738;7.420;2022-08-02T09:06:26;25.20;99.90
64939;DHT22;51453;47.738;7.420;2022-08-02T09:08:52;25.30;99.90
64939;DHT22;51453;47.738;7.420;2022-08-02T09:11:25;25.60;99.90
64939;DHT22;51453;47.738;7.420;2022-08-02T09:13:52;25.50;99.90
64939;DHT22;51453;47.738;7.420;2022-08-02T09:16:31;25.50;99.90
64939;DHT22;51453;47.738;7.420;2022-08-02T09:18:57;25.50;99.90
64939;DHT22;51453;47.738;7.420;2022-08-02T09:21:24;25.60;99.90
64939;DHT22;51453;47.738;7.420;2022-08-02T09:23:58;25.70;99.90
64939;DHT22;51453;47.738;7.420;2022-08-02T09:26:24;25.90;99.90
64939;DHT22;51453;47.738;7.420;2022-08-02T09:28:59;26.00;99.90
64939;DHT22;51453;47.738;7.420;2022-08-02T09:31:25;26.10;99.90
64939;DHT22;51453;47.738;7.420;2022-08-02T09:33:54;26.10;99.90
64939;DHT22;51453;47.738;7.420;2022-08-02T09:36:20;26.20;99.90
64939;DHT22;51453;47.738;7.420;2022-08-02T09:39:01;26.20;99.90
64939;DHT22;51453;47.738;7.420;2022-08-02T09:41:30;26.20;99.90
64939;DHT22;51453;47.738;7.420;2022-08-02T09:43:56;26.30;99.90
64939;DHT22;51453;47.738;7.420;2022-08-02T09:46:25;26.40;99.90
64939;DHT22;51453;47.738;7.420;2022-08-02T09:48:54;26.30;99.90
64939;DHT22;51453;47.738;7.420;2022-08-02T09:52:10;26.30;99.90
64939;DHT22;51453;47.738;7.420;2022-08-02T09:54:16;26.40;99.90
64939;DHT22;51453;47.738;7.420;2022-08-02T09:56:47;26.50;99.90
64939;DHT22;51453;47.738;7.420;2022-08-02T09:59:14;26.60;99.90
64939;DHT22;51453;47.738;7.420;2022-08-02T10:01:42;26.70;99.90
64939;DHT22;51453;47.738;7.420;2022-08-02T10:04:10;26.70;99.90
64939;DHT22;51453;47.738;7.420;2022-08-02T10:06:41;26.50;99.90
64939;DHT22;51453;47.738;7.420;2022-08-02T10:09:11;26.60;99.90
64939;DHT22;51453;47.738;7.420;2022-08-02T10:11:37;26.40;99.90
64939;DHT22;51453;47.738;7.420;2022-08-02T10:14:05;26.50;99.90
64939;DHT22;51453;47.738;7.420;2022-08-02T10:16:33;26.70;99.90
64939;DHT22;51453;47.738;7.420;2022-08-02T10:18:59;27.00;99.90
64939;DHT22;51453;47.738;7.420;2022-08-02T10:24:23;27.50;99.90
64939;DHT22;51453;47.738;7.420;2022-08-02T10:26:52;27.50;99.90
64939;DHT22;51453;47.738;7.420;2022-08-02T10:29:19;27.50;99.90
64939;DHT22;51453;47.738;7.420;2022-08-02T10:31:52;27.40;99.90
64939;DHT22;51453;47.738;7.420;2022-08-02T10:34:22;27.40;99.90
64939;DHT22;51453;47.738;7.420;2022-08-02T10:36:49;27.60;99.90
64939;DHT22;51453;47.738;7.420;2022-08-02T10:39:16;27.60;99.90
64939;DHT22;51453;47.738;7.420;2022-08-02T10:44:29;27.60;99.90
64939;DHT22;51453;47.738;7.420;2022-08-02T10:49:56;27.70;99.90
64939;DHT22;51453;47.738;7.420;2022-08-02T10:52:23;27.60;99.90
64939;DHT22;51453;47.738;7.420;2022-08-02T10:54:55;27.60;99.90
64939;DHT22;51453;47.738;7.420;2022-08-02T10:57:29;27.70;99.90
64939;DHT22;51453;47.738;7.420;2022-08-02T11:00:09;28.00;99.90
64939;DHT22;51453;47.738;7.420;2022-08-02T11:02:43;27.90;99.90
64939;DHT22;51453;47.738;7.420;2022-08-02T11:05:17;27.90;99.90
64939;DHT22;51453;47.738;7.420;2022-08-02T11:07:48;27.90;99.90
64939;DHT22;51453;47.738;7.420;2022-08-02T11:13:04;28.20;99.90
64939;DHT22;51453;47.738;7.420;2022-08-02T11:15:56;28.70;99.90
64939;DHT22;51453;47.738;7.420;2022-08-02T11:21:24;28.90;99.90
64939;DHT22;51453;47.738;7.420;2022-08-02T11:23:51;28.90;99.90
64939;DHT22;51453;47.738;7.420;2022-08-02T11:29:02;28.80;99.90
64939;DHT22;51453;47.738;7.420;2022-08-02T11:31:29;28.80;99.30
64939;DHT22;51453;47.738;7.420;2022-08-02T11:34:04;28.90;99.80
64939;DHT22;51453;47.738;7.420;2022-08-02T11:36:29;29.10;98.60
64939;DHT22;51453;47.738;7.420;2022-08-02T11:39:12;29.00;99.10
64939;DHT22;51453;47.738;7.420;2022-08-02T11:41:38;28.90;98.10
64939;DHT22;51453;47.738;7.420;2022-08-02T11:44:04;28.90;98.10
64939;DHT22;51453;47.738;7.420;2022-08-02T11:46:30;28.90;97.80
64939;DHT22;51453;47.738;7.420;2022-08-02T11:48:56;28.80;97.80
64939;DHT22;51453;47.738;7.420;2022-08-02T11:51:21;28.90;98.00
64939;DHT22;51453;47.738;7.420;2022-08-02T11:53:54;28.80;97.30
64939;DHT22;51453;47.738;7.420;2022-08-02T11:56:29;28.80;95.90
64939;DHT22;51453;47.738;7.420;2022-08-02T11:59:06;29.00;96.30
64939;DHT22;51453;47.738;7.420;2022-08-02T12:01:37;28.90;96.20
64939;DHT22;51453;47.738;7.420;2022-08-02T12:04:04;29.10;94.80
64939;DHT22;51453;47.738;7.420;2022-08-02T12:06:31;29.20;93.40
64939;DHT22;51453;47.738;7.420;2022-08-02T12:09:04;29.50;94.30
64939;DHT22;51453;47.738;7.420;2022-08-02T12:11:30;29.50;92.60
64939;DHT22;51453;47.738;7.420;2022-08-02T12:13:55;29.40;92.50
64939;DHT22;51453;47.738;7.420;2022-08-02T12:16:22;29.30;92.10
64939;DHT22;51453;47.738;7.420;2022-08-02T12:19:07;29.50;90.60
64939;DHT22;51453;47.738;7.420;2022-08-02T12:22:04;29.50;90.70
64939;DHT22;51453;47.738;7.420;2022-08-02T12:24:30;29.40;91.70
64939;DHT22;51453;47.738;7.420;2022-08-02T12:26:56;29.40;92.00
64939;DHT22;51453;47.738;7.420;2022-08-02T12:29:40;29.50;92.20
64939;DHT22;51453;47.738;7.420;2022-08-02T12:32:07;29.50;91.10
64939;DHT22;51453;47.738;7.420;2022-08-02T12:34:34;29.70;90.20
64939;DHT22;51453;47.738;7.420;2022-08-02T12:37:01;29.70;91.30
64939;DHT22;51453;47.738;7.420;2022-08-02T12:39:43;29.80;91.10
64939;DHT22;51453;47.738;7.420;2022-08-02T12:42:11;29.80;90.00
64939;DHT22;51453;47.738;7.420;2022-08-02T12:44:55;29.80;90.90
64939;DHT22;51453;47.738;7.420;2022-08-02T12:47:23;29.70;92.30
64939;DHT22;51453;47.738;7.420;2022-08-02T12:50:21;30.00;90.20
64939;DHT22;51453;47.738;7.420;2022-08-02T12:52:49;30.10;90.20
64939;DHT22;51453;47.738;7.420;2022-08-02T12:55:20;30.10;91.60
64939;DHT22;51453;47.738;7.420;2022-08-02T12:57:57;30.20;91.00
64939;DHT22;51453;47.738;7.420;2022-08-02T13:00:29;30.20;92.90
64939;DHT22;51453;47.738;7.420;2022-08-02T13:02:56;30.20;91.10
64939;DHT22;51453;47.738;7.420;2022-08-02T13:05:22;30.10;91.00
64939;DHT22;51453;47.738;7.420;2022-08-02T13:07:49;30.10;91.30
64939;DHT22;51453;47.738;7.420;2022-08-02T13:10:15;30.00;90.90
64939;DHT22;51453;47.738;7.420;2022-08-02T13:12:41;30.00;90.20
64939;DHT22;51453;47.738;7.420;2022-08-02T13:15:07;30.00;90.20
64939;DHT22;51453;47.738;7.420;2022-08-02T13:17:33;30.10;88.10
64939;DHT22;51453;47.738;7.420;2022-08-02T13:19:59;30.10;87.20
64939;DHT22;51453;47.738;7.420;2022-08-02T13:22:24;30.00;89.60
64939;DHT22;51453;47.738;7.420;2022-08-02T13:24:50;30.20;87.70
64939;DHT22;51453;47.738;7.420;2022-08-02T13:27:17;30.20;87.00
64939;DHT22;51453;47.738;7.420;2022-08-02T13:29:43;30.10;90.00
64939;DHT22;51453;47.738;7.420;2022-08-02T13:32:09;30.00;88.40
64939;DHT22;51453;47.738;7.420;2022-08-02T13:34:35;30.10;89.50
64939;DHT22;51453;47.738;7.420;2022-08-02T13:37:02;30.20;91.00
64939;DHT22;51453;47.738;7.420;2022-08-02T13:39:28;30.20;91.50
64939;DHT22;51453;47.738;7.420;2022-08-02T13:41:53;30.20;90.90
64939;DHT22;51453;47.738;7.420;2022-08-02T13:44:20;30.20;90.10
64939;DHT22;51453;47.738;7.420;2022-08-02T13:46:45;30.40;88.40
64939;DHT22;51453;47.738;7.420;2022-08-02T13:49:15;30.50;87.90
64939;DHT22;51453;47.738;7.420;2022-08-02T13:51:41;30.50;86.30
64939;DHT22;51453;47.738;7.420;2022-08-02T13:54:06;30.50;87.50
64939;DHT22;51453;47.738;7.420;2022-08-02T13:56:32;30.40;86.50
64939;DHT22;51453;47.738;7.420;2022-08-02T13:58:58;30.40;85.80
64939;DHT22;51453;47.738;7.420;2022-08-02T14:01:24;30.60;86.40
64939;DHT22;51453;47.738;7.420;2022-08-02T14:03:50;30.60;87.50
64939;DHT22;51453;47.738;7.420;2022-08-02T14:06:21;30.60;88.70
64939;DHT22;51453;47.738;7.420;2022-08-02T14:08:47;30.70;86.70
64939;DHT22;51453;47.738;7.420;2022-08-02T14:11:13;30.90;87.00
64939;DHT22;51453;47.738;7.420;2022-08-02T14:13:39;31.00;88.10
64939;DHT22;51453;47.738;7.420;2022-08-02T14:16:05;31.00;85.30
64939;DHT22;51453;47.738;7.420;2022-08-02T14:18:31;31.00;83.90
64939;DHT22;51453;47.738;7.420;2022-08-02T14:20:56;31.00;85.30
64939;DHT22;51453;47.738;7.420;2022-08-02T14:23:22;30.80;85.30
64939;DHT22;51453;47.738;7.420;2022-08-02T14:25:48;30.80;86.20
64939;DHT22;51453;47.738;7.420;2022-08-02T14:28:15;30.60;88.90
64939;DHT22;51453;47.738;7.420;2022-08-02T14:30:40;30.60;87.20
64939;DHT22;51453;47.738;7.420;2022-08-02T14:33:07;30.70;86.70
64939;DHT22;51453;47.738;7.420;2022-08-02T14:35:32;30.80;89.10
64939;DHT22;51453;47.738;7.420;2022-08-02T14:37:58;30.90;89.20
64939;DHT22;51453;47.738;7.420;2022-08-02T14:40:24;30.90;86.00
64939;DHT22;51453;47.738;7.420;2022-08-02T14:42:51;31.00;86.50
64939;DHT22;51453;47.738;7.420;2022-08-02T14:45:18;30.90;88.20
64939;DHT22;51453;47.738;7.420;2022-08-02T14:47:47;31.00;83.70
64939;DHT22;51453;47.738;7.420;2022-08-02T14:50:14;31.00;83.80
64939;DHT22;51453;47.738;7.420;2022-08-02T14:52:41;30.70;83.50
64939;DHT22;51453;47.738;7.420;2022-08-02T14:55:07;30.60;87.20
64939;DHT22;51453;47.738;7.420;2022-08-02T14:57:33;30.70;87.90
64939;DHT22;51453;47.738;7.420;2022-08-02T14:59:58;30.70;88.00
64939;DHT22;51453;47.738;7.420;2022-08-02T15:02:29;30.90;85.10
64939;DHT22;51453;47.738;7.420;2022-08-02T15:04:55;30.90;85.10
64939;DHT22;51453;47.738;7.420;2022-08-02T15:07:21;30.80;85.00
64939;DHT22;51453;47.738;7.420;2022-08-02T15:09:46;30.70;87.90
64939;DHT22;51453;47.738;7.420;2022-08-02T15:12:12;30.60;87.10
64939;DHT22;51453;47.738;7.420;2022-08-02T15:14:38;30.70;85.10
64939;DHT22;51453;47.738;7.420;2022-08-02T15:17:05;30.70;84.10
64939;DHT22;51453;47.738;7.420;2022-08-02T15:19:31;30.80;86.30
64939;DHT22;51453;47.738;7.420;2022-08-02T15:21:57;30.90;85.00
64939;DHT22;51453;47.738;7.420;2022-08-02T15:24:24;31.10;83.80
64939;DHT22;51453;47.738;7.420;2022-08-02T15:26:50;31.00;84.70
64939;DHT22;51453;47.738;7.420;2022-08-02T15:29:17;31.00;83.00
64939;DHT22;51453;47.738;7.420;2022-08-02T15:31:42;31.00;83.50
64939;DHT22;51453;47.738;7.420;2022-08-02T15:34:08;31.00;84.50
64939;DHT22;51453;47.738;7.420;2022-08-02T15:36:34;31.00;86.30
64939;DHT22;51453;47.738;7.420;2022-08-02T15:39:00;30.90;85.90
64939;DHT22;51453;47.738;7.420;2022-08-02T15:41:26;30.80;86.90
64939;DHT22;51453;47.738;7.420;2022-08-02T15:43:52;30.80;88.40
64939;DHT22;51453;47.738;7.420;2022-08-02T15:46:18;30.80;84.00
64939;DHT22;51453;47.738;7.420;2022-08-02T15:48:43;30.80;84.20
64939;DHT22;51453;47.738;7.420;2022-08-02T15:51:09;30.90;83.30
64939;DHT22;51453;47.738;7.420;2022-08-02T15:53:35;30.60;85.80
64939;DHT22;51453;47.738;7.420;2022-08-02T15:56:01;30.40;85.80
64939;DHT22;51453;47.738;7.420;2022-08-02T15:58:26;30.60;85.50
64939;DHT22;51453;47.738;7.420;2022-08-02T16:00:52;30.60;87.90
64939;DHT22;51453;47.738;7.420;2022-08-02T16:03:19;30.60;87.40
64939;DHT22;51453;47.738;7.420;2022-08-02T16:05:45;30.50;88.20
64939;DHT22;51453;47.738;7.420;2022-08-02T16:08:10;30.70;87.90